createdAt,value
2018-09-08T00:00:24.937Z,14.20
2018-09-08T00:02:53.167Z,14.20
2018-09-08T00:05:21.379Z,14.20
2018-09-08T00:07:49.623Z,14.10
2018-09-08T00:10:17.834Z,14.00
2018-09-08T00:12:46.075Z,13.90
2018-09-08T00:15:19.701Z,13.80
2018-09-08T00:17:53.266Z,13.70
2018-09-08T00:20:26.883Z,13.70
2018-09-08T00:23:00.449Z,13.60
2018-09-08T00:25:34.020Z,13.60
2018-09-08T00:28:06.553Z,13.50
2018-09-08T00:30:34.753Z,13.50
2018-09-08T00:33:02.975Z,13.40
2018-09-08T00:35:31.197Z,13.40
2018-09-08T00:37:59.465Z,13.40
2018-09-08T00:40:27.676Z,13.50
2018-09-08T00:42:55.879Z,13.50
2018-09-08T00:45:24.083Z,13.50
2018-09-08T00:47:52.347Z,13.50
2018-09-08T00:50:20.631Z,13.60
2018-09-08T00:52:48.843Z,13.60
2018-09-08T00:55:17.326Z,13.60
2018-09-08T00:57:45.547Z,13.60
2018-09-08T01:00:13.763Z,13.50
2018-09-08T01:02:42.002Z,13.40
2018-09-08T01:05:10.212Z,13.20
2018-09-08T01:07:38.424Z,13.10
2018-09-08T01:10:06.624Z,13.00
2018-09-08T01:12:34.843Z,12.90
2018-09-08T01:15:03.034Z,12.80
2018-09-08T01:17:31.242Z,12.70
2018-09-08T01:19:59.436Z,12.70
2018-09-08T01:22:27.715Z,12.70
2018-09-08T01:24:56.107Z,12.60
2018-09-08T01:27:24.302Z,12.60
2018-09-08T01:29:52.522Z,12.60
2018-09-08T01:32:20.727Z,12.60
2018-09-08T01:34:48.973Z,12.50
2018-09-08T01:37:17.172Z,12.50
2018-09-08T01:39:45.402Z,12.40
2018-09-08T01:42:13.622Z,12.30
2018-09-08T01:44:41.826Z,12.30
2018-09-08T01:47:10.038Z,12.30
2018-09-08T01:49:38.265Z,12.20
2018-09-08T01:52:06.679Z,12.20
2018-09-08T01:54:34.922Z,12.30
2018-09-08T01:57:03.139Z,12.40
2018-09-08T01:59:31.379Z,12.40
2018-09-08T02:01:59.621Z,12.40
2018-09-08T02:04:27.874Z,12.30
2018-09-08T02:06:57.100Z,12.20
2018-09-08T02:09:25.318Z,12.20
2018-09-08T02:11:53.513Z,12.10
2018-09-08T02:14:21.750Z,12.00
2018-09-08T02:16:49.949Z,11.90
2018-09-08T02:19:18.171Z,11.90
2018-09-08T02:21:46.392Z,11.90
2018-09-08T02:24:14.652Z,11.90
2018-09-08T02:26:42.862Z,11.90
2018-09-08T02:29:11.094Z,11.90
2018-09-08T02:31:39.311Z,11.80
2018-09-08T02:34:07.541Z,11.80
2018-09-08T02:36:35.775Z,11.80
2018-09-08T02:39:04.296Z,11.70
2018-09-08T02:41:32.502Z,11.70
2018-09-08T02:44:00.719Z,11.60
2018-09-08T02:46:28.972Z,11.60
2018-09-08T02:48:57.175Z,11.60
2018-09-08T02:51:24.424Z,11.60
2018-09-08T02:53:51.696Z,11.60
2018-09-08T02:56:18.947Z,11.70
2018-09-08T02:58:46.210Z,11.80
2018-09-08T03:01:13.458Z,11.90
2018-09-08T03:03:40.743Z,12.00
2018-09-08T03:06:08.001Z,12.10
2018-09-08T03:08:35.294Z,12.20
2018-09-08T03:11:02.576Z,12.20
2018-09-08T03:13:29.831Z,12.30
2018-09-08T03:15:57.119Z,12.30
2018-09-08T03:18:24.367Z,12.40
2018-09-08T03:20:51.644Z,12.30
2018-09-08T03:23:18.905Z,12.30
2018-09-08T03:25:46.194Z,12.20
2018-09-08T03:28:13.440Z,12.20
2018-09-08T03:30:40.724Z,12.10
2018-09-08T03:33:07.982Z,12.10
2018-09-08T03:35:35.256Z,12.10
2018-09-08T03:38:02.516Z,12.20
2018-09-08T03:40:29.862Z,12.10
2018-09-08T03:42:57.114Z,12.20
2018-09-08T03:45:24.404Z,12.30
2018-09-08T03:47:51.678Z,12.30
2018-09-08T03:50:18.939Z,12.40
2018-09-08T03:52:46.195Z,12.40
2018-09-08T03:55:13.465Z,12.40
2018-09-08T03:57:40.722Z,12.30
2018-09-08T04:00:07.983Z,12.40
2018-09-08T04:02:36.218Z,12.30
2018-09-08T04:05:04.462Z,12.30
2018-09-08T04:07:32.677Z,12.30
2018-09-08T04:10:00.918Z,12.20
2018-09-08T04:12:29.102Z,12.20
2018-09-08T04:14:57.327Z,12.20
2018-09-08T04:17:25.551Z,12.20
2018-09-08T04:19:53.874Z,12.30
2018-09-08T04:22:26.547Z,12.30
2018-09-08T04:24:54.764Z,12.30
2018-09-08T04:27:22.966Z,12.30
2018-09-08T04:29:51.184Z,12.30
2018-09-08T04:32:19.393Z,12.20
2018-09-08T04:34:47.617Z,12.20
2018-09-08T04:37:15.832Z,12.10
2018-09-08T04:39:44.050Z,12.00
2018-09-08T04:42:12.251Z,11.90
2018-09-08T04:44:40.516Z,11.80
2018-09-08T04:47:08.716Z,11.70
2018-09-08T04:49:36.948Z,11.70
2018-09-08T04:52:05.319Z,11.60
2018-09-08T04:54:33.515Z,11.60
2018-09-08T04:57:01.770Z,11.60
2018-09-08T04:59:29.981Z,11.50
2018-09-08T05:01:58.200Z,11.50
2018-09-08T05:04:26.441Z,11.60
2018-09-08T05:06:54.660Z,11.70
2018-09-08T05:09:22.891Z,11.90
2018-09-08T05:11:51.118Z,12.00
2018-09-08T05:14:19.327Z,12.10
2018-09-08T05:16:47.605Z,12.10
2018-09-08T05:19:15.847Z,12.10
2018-09-08T05:21:44.106Z,12.10
2018-09-08T05:24:12.339Z,12.10
2018-09-08T05:26:40.580Z,12.10
2018-09-08T05:29:08.787Z,12.30
2018-09-08T05:31:37.021Z,12.50
2018-09-08T05:34:05.233Z,12.70
2018-09-08T05:36:33.466Z,12.90
2018-09-08T05:39:01.671Z,13.10
2018-09-08T05:41:29.971Z,13.20
2018-09-08T05:43:58.211Z,13.30
2018-09-08T05:46:26.440Z,13.50
2018-09-08T05:48:54.682Z,13.60
2018-09-08T05:51:26.193Z,13.70
2018-09-08T05:53:54.434Z,13.80
2018-09-08T05:56:22.740Z,13.90
2018-09-08T05:58:50.943Z,13.90
2018-09-08T06:01:19.231Z,13.80
2018-09-08T06:03:47.435Z,13.80
2018-09-08T06:06:15.672Z,13.70
2018-09-08T06:08:43.876Z,13.70
2018-09-08T06:11:12.095Z,13.60
2018-09-08T06:13:40.318Z,13.60
2018-09-08T06:16:08.542Z,13.50
2018-09-08T06:18:36.795Z,13.50
2018-09-08T06:21:05.167Z,13.50
2018-09-08T06:23:33.427Z,13.50
2018-09-08T06:26:01.907Z,13.60
2018-09-08T06:28:30.137Z,13.60
2018-09-08T06:30:58.610Z,13.70
2018-09-08T06:33:26.866Z,13.80
2018-09-08T06:35:55.112Z,13.90
2018-09-08T06:38:23.354Z,14.00
2018-09-08T06:40:51.580Z,14.00
2018-09-08T06:43:19.820Z,14.10
2018-09-08T06:45:48.031Z,14.20
2018-09-08T06:48:16.300Z,14.20
2018-09-08T06:50:44.640Z,14.30
2018-09-08T06:53:12.907Z,14.40
2018-09-08T06:55:41.129Z,14.40
2018-09-08T06:58:09.347Z,14.60
2018-09-08T07:00:37.539Z,14.70
2018-09-08T07:03:05.874Z,14.90
2018-09-08T07:05:34.090Z,15.00
2018-09-08T07:08:02.340Z,15.10
2018-09-08T07:10:30.550Z,15.30
2018-09-08T07:12:59.259Z,15.50
2018-09-08T07:15:27.512Z,15.90
2018-09-08T07:17:55.751Z,16.30
2018-09-08T07:20:24.113Z,16.80
2018-09-08T07:22:52.402Z,19.40
2018-09-08T07:25:20.602Z,22.80
2018-09-08T07:27:48.836Z,25.60
2018-09-08T07:30:17.043Z,27.80
2018-09-08T07:32:45.288Z,28.90
2018-09-08T07:35:13.500Z,29.00
2018-09-08T07:37:41.712Z,29.80
2018-09-08T07:40:09.936Z,30.60
2018-09-08T07:42:38.148Z,31.20
2018-09-08T07:45:06.364Z,31.70
2018-09-08T07:47:34.566Z,30.60
2018-09-08T07:50:02.796Z,30.90
2018-09-08T07:52:31.053Z,30.40
2018-09-08T07:54:59.288Z,30.40
2018-09-08T07:57:27.481Z,31.50
2018-09-08T07:59:55.726Z,31.60
2018-09-08T08:02:23.940Z,31.70
2018-09-08T08:04:52.155Z,31.50
2018-09-08T08:07:20.378Z,31.20
2018-09-08T08:09:48.591Z,30.60
2018-09-08T08:12:16.793Z,30.30
2018-09-08T08:14:45.026Z,30.10
2018-09-08T08:17:13.297Z,30.10
2018-09-08T08:19:41.512Z,30.70
2018-09-08T08:22:09.761Z,30.50
2018-09-08T08:24:38.004Z,29.90
2018-09-08T08:27:06.195Z,29.40
2018-09-08T08:29:34.440Z,29.10
2018-09-08T08:32:02.643Z,29.90
2018-09-08T08:34:30.878Z,30.40
2018-09-08T08:36:59.113Z,30.40
2018-09-08T08:39:27.335Z,30.70
2018-09-08T08:41:55.537Z,30.80
2018-09-08T08:44:23.743Z,30.20
2018-09-08T08:46:51.974Z,30.00
2018-09-08T08:49:20.182Z,29.90
2018-09-08T08:51:59.594Z,30.40
2018-09-08T08:54:35.040Z,30.60
2018-09-08T08:57:03.253Z,30.70
2018-09-08T08:59:31.511Z,30.60
2018-09-08T09:01:59.769Z,30.60
2018-09-08T09:04:28.009Z,30.60
2018-09-08T09:06:56.545Z,30.30
2018-09-08T09:09:24.509Z,30.00
2018-09-08T09:11:53.079Z,30.10
2018-09-08T09:14:20.940Z,30.30
2018-09-08T09:16:49.131Z,30.70
2018-09-08T09:19:32.482Z,31.30
2018-09-08T09:22:12.096Z,31.50
2018-09-08T09:24:47.998Z,31.00
2018-09-08T09:27:15.799Z,30.90
2018-09-08T09:29:44.045Z,30.60
2018-09-08T09:32:12.250Z,30.40
2018-09-08T09:34:41.095Z,30.60
2018-09-08T09:37:09.449Z,30.60
2018-09-08T09:39:37.815Z,31.20
2018-09-08T09:42:06.176Z,31.10
2018-09-08T09:44:34.388Z,30.80
2018-09-08T09:47:02.645Z,30.90
2018-09-08T09:49:30.882Z,30.00
2018-09-08T09:51:59.187Z,29.50
2018-09-08T09:54:27.469Z,29.60
2018-09-08T09:56:55.670Z,29.80
2018-09-08T09:59:23.987Z,29.40
2018-09-08T10:01:57.452Z,29.20
2018-09-08T10:04:25.667Z,27.70
2018-09-08T10:06:54.539Z,26.30
2018-09-08T10:09:22.763Z,25.00
2018-09-08T10:11:50.976Z,24.40
2018-09-08T10:14:19.528Z,24.30
2018-09-08T10:16:47.851Z,24.20
2018-09-08T10:19:16.066Z,24.00
2018-09-08T10:21:44.886Z,24.00
2018-09-08T10:24:13.656Z,24.00
2018-09-08T10:26:41.901Z,24.00
2018-09-08T10:29:10.127Z,24.00
2018-09-08T10:31:38.337Z,24.00
2018-09-08T10:34:06.570Z,24.10
2018-09-08T10:36:34.808Z,24.20
2018-09-08T10:39:03.047Z,24.40
2018-09-08T10:41:31.281Z,24.60
2018-09-08T10:43:59.478Z,24.80
2018-09-08T10:46:27.723Z,24.90
2018-09-08T10:48:55.975Z,24.90
2018-09-08T10:53:31.293Z,25.00
2018-09-08T10:55:59.526Z,25.00
2018-09-08T10:58:27.729Z,24.80
2018-09-08T11:00:55.931Z,24.70
2018-09-08T11:03:24.172Z,24.90
2018-09-08T11:05:52.417Z,24.90
2018-09-08T11:08:20.650Z,24.90
2018-09-08T11:10:49.015Z,24.80
2018-09-08T11:13:17.249Z,24.90
2018-09-08T11:15:45.531Z,25.00
2018-09-08T11:18:13.718Z,25.20
2018-09-08T11:20:41.936Z,25.20
2018-09-08T11:23:10.185Z,25.20
2018-09-08T11:25:38.383Z,24.90
2018-09-08T11:28:06.756Z,24.70
2018-09-08T11:30:35.139Z,24.40
2018-09-08T11:33:03.388Z,24.60
2018-09-08T11:35:31.595Z,24.90
2018-09-08T11:37:59.907Z,25.20
2018-09-08T11:40:28.038Z,25.10
2018-09-08T11:42:56.281Z,24.80
2018-09-08T11:45:24.481Z,25.00
2018-09-08T11:47:52.740Z,25.00
2018-09-08T11:50:20.964Z,24.90
2018-09-08T11:52:49.232Z,24.70
2018-09-08T11:55:17.455Z,24.60
2018-09-08T11:57:45.809Z,24.90
2018-09-08T12:00:14.029Z,25.40
2018-09-08T12:02:42.247Z,25.70
2018-09-08T12:05:10.464Z,25.90
2018-09-08T12:07:38.692Z,25.90
2018-09-08T12:10:06.912Z,25.90
2018-09-08T12:12:35.154Z,25.80
2018-09-08T12:15:03.343Z,25.30
2018-09-08T12:17:31.563Z,24.70
2018-09-08T12:19:59.763Z,24.30
2018-09-08T12:22:28.013Z,24.10
2018-09-08T12:24:56.235Z,23.90
2018-09-08T12:27:24.483Z,24.00
2018-09-08T12:29:52.668Z,24.50
2018-09-08T12:32:20.921Z,24.90
2018-09-08T12:34:49.144Z,25.00
2018-09-08T12:37:17.444Z,24.60
2018-09-08T12:39:45.624Z,24.10
2018-09-08T12:42:13.833Z,23.70
2018-09-08T12:44:42.035Z,23.60
2018-09-08T12:47:10.299Z,23.40
2018-09-08T12:49:38.496Z,23.40
2018-09-08T12:52:06.774Z,23.70
2018-09-08T12:54:34.999Z,24.10
2018-09-08T12:57:03.219Z,24.40
2018-09-08T12:59:31.512Z,24.60
2018-09-08T13:01:59.688Z,24.70
2018-09-08T13:04:27.927Z,24.70
2018-09-08T13:06:56.202Z,24.80
2018-09-08T13:09:24.494Z,24.70
2018-09-08T13:11:52.958Z,24.80
2018-09-08T13:14:21.278Z,24.70
2018-09-08T13:16:49.498Z,24.50
2018-09-08T13:19:17.731Z,24.10
2018-09-08T13:21:46.025Z,23.80
2018-09-08T13:24:14.347Z,23.80
2018-09-08T13:26:42.567Z,23.70
2018-09-08T13:29:10.790Z,23.80
2018-09-08T13:31:39.095Z,23.90
2018-09-08T13:34:08.729Z,23.70
2018-09-08T13:36:36.938Z,23.60
2018-09-08T13:39:06.599Z,23.50
2018-09-08T13:41:34.811Z,23.40
2018-09-08T13:44:03.048Z,23.20
2018-09-08T13:46:31.276Z,23.10
2018-09-08T13:48:59.498Z,23.00
2018-09-08T13:51:27.687Z,22.90
2018-09-08T13:53:55.947Z,22.90
2018-09-08T13:56:24.179Z,23.00
2018-09-08T13:58:52.395Z,23.20
2018-09-08T14:01:20.634Z,23.40
2018-09-08T14:03:48.873Z,23.70
2018-09-08T14:06:17.096Z,23.80
2018-09-08T14:08:45.369Z,24.00
2018-09-08T14:11:13.604Z,24.00
2018-09-08T14:13:41.839Z,24.00
2018-09-08T14:16:10.059Z,24.00
2018-09-08T14:18:38.400Z,24.00
2018-09-08T14:21:06.664Z,23.90
2018-09-08T14:23:35.016Z,23.90
2018-09-08T14:26:03.240Z,23.80
2018-09-08T14:28:31.503Z,23.80
2018-09-08T14:30:59.720Z,23.70
2018-09-08T14:33:27.967Z,23.70
2018-09-08T14:35:56.308Z,23.70
2018-09-08T14:38:24.573Z,23.60
2018-09-08T14:40:52.797Z,23.50
2018-09-08T14:43:21.064Z,23.40
2018-09-08T14:45:49.279Z,23.30
2018-09-08T14:48:17.495Z,23.30
2018-09-08T14:50:45.794Z,23.20
2018-09-08T14:53:14.011Z,23.30
2018-09-08T14:55:42.323Z,23.20
2018-09-08T14:58:10.628Z,23.10
2018-09-08T15:00:38.902Z,23.10
2018-09-08T15:03:07.159Z,23.00
2018-09-08T15:05:35.379Z,23.10
2018-09-08T15:08:03.823Z,23.10
2018-09-08T15:10:32.069Z,23.20
2018-09-08T15:13:00.342Z,23.10
2018-09-08T15:15:28.602Z,23.00
2018-09-08T15:17:56.963Z,22.90
2018-09-08T15:20:25.212Z,22.80
2018-09-08T15:22:53.984Z,22.70
2018-09-08T15:25:22.373Z,22.60
2018-09-08T15:27:50.588Z,22.50
2018-09-08T15:30:18.981Z,22.30
2018-09-08T15:32:47.235Z,22.20
2018-09-08T15:35:16.059Z,21.90
2018-09-08T15:37:45.056Z,21.80
2018-09-08T15:40:13.334Z,21.70
2018-09-08T15:42:41.554Z,21.70
2018-09-08T15:45:09.939Z,21.80
2018-09-08T15:47:38.185Z,22.00
2018-09-08T15:50:06.485Z,22.20
2018-09-08T15:52:34.687Z,22.60
2018-09-08T15:55:02.904Z,22.90
2018-09-08T15:57:31.130Z,23.20
2018-09-08T15:59:59.359Z,23.30
2018-09-08T16:02:27.567Z,23.40
2018-09-08T16:04:55.801Z,23.40
2018-09-08T16:07:24.013Z,23.10
2018-09-08T16:09:52.261Z,22.80
2018-09-08T16:12:20.459Z,22.50
2018-09-08T16:14:48.692Z,22.30
2018-09-08T16:17:16.923Z,22.20
2018-09-08T16:19:45.157Z,22.10
2018-09-08T16:22:13.398Z,22.00
2018-09-08T16:24:41.763Z,21.90
2018-09-08T16:27:09.980Z,21.90
2018-09-08T16:29:38.226Z,21.90
2018-09-08T16:32:06.438Z,21.90
2018-09-08T16:34:34.664Z,21.90
2018-09-08T16:37:02.905Z,21.90
2018-09-08T16:39:31.112Z,21.80
2018-09-08T16:41:59.326Z,21.60
2018-09-08T16:44:27.550Z,21.40
2018-09-08T16:46:55.943Z,21.10
2018-09-08T16:49:24.155Z,20.80
2018-09-08T16:51:52.432Z,20.60
2018-09-08T16:54:20.621Z,20.30
2018-09-08T16:56:48.839Z,20.00
2018-09-08T16:59:17.026Z,19.80
2018-09-08T17:01:45.275Z,19.60
2018-09-08T17:04:13.488Z,19.40
2018-09-08T17:06:42.169Z,19.20
2018-09-08T17:09:10.370Z,19.00
2018-09-08T17:11:38.595Z,18.80
2018-09-08T17:14:06.818Z,18.70
2018-09-08T17:16:35.098Z,18.60
2018-09-08T17:19:03.315Z,18.50
2018-09-08T17:21:31.568Z,18.40
2018-09-08T17:23:59.802Z,18.20
2018-09-08T17:26:28.040Z,18.00
2018-09-08T17:28:56.231Z,17.90
2018-09-08T17:31:24.476Z,17.70
2018-09-08T17:33:52.702Z,17.50
2018-09-08T17:36:20.943Z,17.30
2018-09-08T17:38:49.247Z,17.20
2018-09-08T17:41:17.486Z,17.10
2018-09-08T17:43:45.697Z,16.90
2018-09-08T17:46:13.976Z,16.70
2018-09-08T17:48:42.184Z,16.60
2018-09-08T17:51:10.460Z,16.40
2018-09-08T17:53:38.666Z,16.30
2018-09-08T17:56:06.966Z,16.20
2018-09-08T17:58:35.194Z,16.10
2018-09-08T18:01:03.553Z,16.00
2018-09-08T18:03:31.760Z,15.90
2018-09-08T18:05:59.996Z,15.80
2018-09-08T18:08:28.211Z,15.70
2018-09-08T18:10:56.631Z,15.70
2018-09-08T18:13:25.552Z,15.60
2018-09-08T18:15:53.796Z,15.50
2018-09-08T18:18:22.392Z,15.40
2018-09-08T18:20:51.051Z,15.40
2018-09-08T18:23:19.317Z,15.30
2018-09-08T18:25:47.570Z,15.20
2018-09-08T18:28:15.786Z,15.20
2018-09-08T18:30:43.997Z,15.10
2018-09-08T18:33:12.219Z,15.00
2018-09-08T18:35:40.484Z,15.00
2018-09-08T18:38:09.347Z,14.90
2018-09-08T18:40:37.546Z,14.90
2018-09-08T18:43:05.798Z,14.80
2018-09-08T18:45:34.011Z,14.80
2018-09-08T18:48:02.232Z,14.70
2018-09-08T18:50:30.476Z,14.70
2018-09-08T18:52:58.709Z,14.60
2018-09-08T18:55:27.027Z,14.50
2018-09-08T18:57:55.328Z,14.50
2018-09-08T19:00:23.527Z,14.40
2018-09-08T19:02:51.765Z,14.40
2018-09-08T19:05:19.975Z,14.30
2018-09-08T19:07:48.220Z,14.30
2018-09-08T19:10:16.414Z,14.20
2018-09-08T19:12:44.643Z,14.20
2018-09-08T19:15:18.455Z,14.20
2018-09-08T19:17:46.750Z,14.20
2018-09-08T19:20:20.275Z,14.10
2018-09-08T19:22:48.719Z,14.10
2018-09-08T19:25:16.973Z,14.00
2018-09-08T19:27:45.255Z,14.00
2018-09-08T19:30:13.477Z,13.90
2018-09-08T19:32:41.746Z,13.80
2018-09-08T19:35:15.177Z,13.80
2018-09-08T19:37:43.483Z,13.70
2018-09-08T19:40:16.958Z,13.70
2018-09-08T19:42:45.265Z,13.70
2018-09-08T19:45:13.459Z,13.60
2018-09-08T19:47:46.946Z,13.60
2018-09-08T19:50:15.157Z,13.50
2018-09-08T19:52:48.752Z,13.40
2018-09-08T19:55:17.007Z,13.40
2018-09-08T19:57:50.586Z,13.30
2018-09-08T20:00:25.528Z,13.20
2018-09-08T20:02:53.753Z,13.20
2018-09-08T20:05:21.960Z,13.10
2018-09-08T20:07:50.182Z,13.10
2018-09-08T20:10:18.382Z,13.00
2018-09-08T20:12:46.643Z,13.00
2018-09-08T20:15:14.896Z,12.90
2018-09-08T20:17:43.221Z,12.90
2018-09-08T20:20:11.462Z,12.90
2018-09-08T20:22:39.760Z,12.90
2018-09-08T20:25:07.985Z,12.80
2018-09-08T20:27:36.265Z,12.80
2018-09-08T20:30:04.535Z,12.80
2018-09-08T20:32:32.751Z,12.80
2018-09-08T20:35:00.971Z,12.80
2018-09-08T20:37:29.459Z,12.80
2018-09-08T20:39:57.811Z,12.90
2018-09-08T20:42:26.057Z,13.00
2018-09-08T20:44:54.305Z,13.00
2018-09-08T20:47:22.522Z,13.10
2018-09-08T20:49:50.803Z,13.10
2018-09-08T20:52:19.024Z,13.00
2018-09-08T20:54:47.277Z,13.10
2018-09-08T20:57:15.519Z,13.10
2018-09-08T20:59:43.770Z,13.10
2018-09-08T21:02:11.992Z,13.10
2018-09-08T21:04:40.243Z,13.10
2018-09-08T21:07:09.467Z,13.20
2018-09-08T21:09:38.020Z,13.20
2018-09-08T21:12:06.227Z,13.20
2018-09-08T21:14:34.524Z,13.30
2018-09-08T21:17:02.762Z,13.30
2018-09-08T21:19:31.021Z,13.30
2018-09-08T21:21:59.228Z,13.30
2018-09-08T21:24:27.473Z,13.40
2018-09-08T21:26:55.727Z,13.40
2018-09-08T21:29:23.992Z,13.40
2018-09-08T21:31:52.210Z,13.40
2018-09-08T21:34:20.503Z,13.40
2018-09-08T21:36:48.726Z,13.40
2018-09-08T21:39:16.967Z,13.30
2018-09-08T21:41:45.266Z,13.30
2018-09-08T21:44:13.456Z,13.30
2018-09-08T21:46:41.678Z,13.30
2018-09-08T21:49:09.939Z,13.30
2018-09-08T21:51:38.136Z,13.20
2018-09-08T21:54:06.363Z,13.20
2018-09-08T21:56:34.557Z,13.10
2018-09-08T21:59:02.794Z,13.10
2018-09-08T22:01:31.032Z,12.90
2018-09-08T22:03:59.276Z,12.80
2018-09-08T22:06:27.489Z,12.60
2018-09-08T22:08:55.740Z,12.60
2018-09-08T22:11:23.957Z,12.60
2018-09-08T22:13:52.190Z,12.50
2018-09-08T22:16:20.431Z,12.50
2018-09-08T22:18:48.665Z,12.50
2018-09-08T22:21:16.883Z,12.30
2018-09-08T22:23:45.116Z,12.20
2018-09-08T22:26:13.345Z,12.10
2018-09-08T22:28:41.571Z,11.90
2018-09-08T22:31:09.779Z,11.80
2018-09-08T22:33:37.999Z,11.70
2018-09-08T22:36:06.214Z,11.60
2018-09-08T22:38:34.423Z,11.60
2018-09-08T22:41:02.659Z,11.80
2018-09-08T22:43:30.873Z,11.80
2018-09-08T22:45:59.099Z,11.90
2018-09-08T22:48:29.380Z,12.00
2018-09-08T22:50:57.607Z,12.00
2018-09-08T22:53:25.967Z,12.10
2018-09-08T22:55:54.219Z,12.10
2018-09-08T22:58:22.430Z,12.10
2018-09-08T23:00:50.659Z,12.10
2018-09-08T23:03:18.872Z,12.10
2018-09-08T23:05:47.084Z,12.10
2018-09-08T23:08:15.293Z,12.00
2018-09-08T23:10:43.623Z,12.00
2018-09-08T23:13:11.873Z,12.00
2018-09-08T23:15:40.083Z,12.00
2018-09-08T23:18:08.324Z,12.10
2018-09-08T23:20:36.561Z,12.10
2018-09-08T23:23:04.812Z,12.10
2018-09-08T23:25:33.047Z,12.20
2018-09-08T23:28:01.275Z,12.20
2018-09-08T23:30:29.527Z,12.20
2018-09-08T23:32:57.749Z,12.30
2018-09-08T23:35:26.000Z,12.20
2018-09-08T23:37:54.226Z,12.30
2018-09-08T23:40:22.443Z,12.30
2018-09-08T23:42:50.942Z,12.30
2018-09-08T23:45:19.160Z,12.30
2018-09-08T23:47:47.367Z,12.30
2018-09-08T23:50:15.634Z,12.30
2018-09-08T23:52:43.815Z,12.30
2018-09-08T23:55:12.147Z,12.40
2018-09-08T23:57:40.383Z,12.40
